createdAt,value
2023-03-18T00:00:23.401Z,100.00
2023-03-18T00:02:40.431Z,100.00
2023-03-18T00:04:57.795Z,100.00
2023-03-18T00:07:14.775Z,100.00
2023-03-18T00:09:31.839Z,100.00
2023-03-18T00:11:49.104Z,100.00
2023-03-18T00:14:06.020Z,100.00
2023-03-18T00:16:22.995Z,100.00
2023-03-18T00:18:39.979Z,99.41
2023-03-18T00:20:57.986Z,100.00
2023-03-18T00:23:16.215Z,99.44
2023-03-18T00:25:33.448Z,100.00
2023-03-18T00:27:50.515Z,100.00
2023-03-18T00:30:07.479Z,100.00
2023-03-18T00:32:24.702Z,100.00
2023-03-18T00:34:41.589Z,100.00
2023-03-18T00:36:59.613Z,99.18
2023-03-18T00:39:16.683Z,99.34
2023-03-18T00:41:33.711Z,99.96
2023-03-18T00:43:50.745Z,99.82
2023-03-18T00:46:08.069Z,99.98
2023-03-18T00:48:25.301Z,100.00
2023-03-18T00:50:42.327Z,99.64
2023-03-18T00:53:00.326Z,100.00
2023-03-18T00:55:18.346Z,99.94
2023-03-18T00:57:35.556Z,98.87
2023-03-18T00:59:52.611Z,99.03
2023-03-18T01:02:09.912Z,99.24
2023-03-18T01:04:28.180Z,98.52
2023-03-18T01:06:45.521Z,97.40
2023-03-18T01:09:02.852Z,98.53
2023-03-18T01:11:20.122Z,99.06
2023-03-18T01:13:37.170Z,99.11
2023-03-18T01:15:54.258Z,98.01
2023-03-18T01:18:11.436Z,98.11
2023-03-18T01:20:28.475Z,98.46
2023-03-18T01:22:45.650Z,98.89
2023-03-18T01:25:02.855Z,99.03
2023-03-18T01:27:20.540Z,98.69
2023-03-18T01:29:37.815Z,98.83
2023-03-18T01:31:55.214Z,99.60
2023-03-18T01:34:12.429Z,99.56
2023-03-18T01:36:29.357Z,98.66
2023-03-18T01:38:46.444Z,98.17
2023-03-18T01:41:03.537Z,99.22
2023-03-18T01:43:22.015Z,98.76
2023-03-18T01:45:39.398Z,98.23
2023-03-18T01:47:56.320Z,98.49
2023-03-18T01:50:13.381Z,98.41
2023-03-18T01:52:30.262Z,97.25
2023-03-18T01:54:47.309Z,97.67
2023-03-18T01:57:04.207Z,98.47
2023-03-18T01:59:21.490Z,99.03
2023-03-18T02:01:39.614Z,99.15
2023-03-18T02:03:56.465Z,98.63
2023-03-18T02:06:13.779Z,98.92
2023-03-18T02:08:30.681Z,98.33
2023-03-18T02:10:47.708Z,99.46
2023-03-18T02:13:04.749Z,97.94
2023-03-18T02:15:21.734Z,98.95
2023-03-18T02:17:38.715Z,97.62
2023-03-18T02:19:55.786Z,97.24
2023-03-18T02:22:12.724Z,97.83
2023-03-18T02:24:29.772Z,96.68
2023-03-18T02:26:46.765Z,97.93
2023-03-18T02:29:03.793Z,96.88
2023-03-18T02:31:20.849Z,97.09
2023-03-18T02:33:38.129Z,96.95
2023-03-18T02:35:55.392Z,96.52
2023-03-18T02:38:12.524Z,96.83
2023-03-18T02:40:29.853Z,97.70
2023-03-18T02:42:46.889Z,98.50
2023-03-18T02:45:03.954Z,99.10
2023-03-18T02:47:20.897Z,99.18
2023-03-18T02:49:37.794Z,99.28
2023-03-18T02:51:55.742Z,99.68
2023-03-18T02:54:12.770Z,99.25
2023-03-18T02:56:29.777Z,99.22
2023-03-18T02:58:46.802Z,99.45
2023-03-18T03:01:03.826Z,99.56
2023-03-18T03:03:20.783Z,100.00
2023-03-18T03:05:37.868Z,99.77
2023-03-18T03:07:55.108Z,99.36
2023-03-18T03:10:12.106Z,99.85
2023-03-18T03:12:29.179Z,98.72
2023-03-18T03:14:46.275Z,98.89
2023-03-18T03:17:04.343Z,99.37
2023-03-18T03:19:21.353Z,98.00
2023-03-18T03:21:38.654Z,98.52
2023-03-18T03:23:56.719Z,99.35
2023-03-18T03:26:13.549Z,98.58
2023-03-18T03:28:31.825Z,99.23
2023-03-18T03:30:48.837Z,99.02
2023-03-18T03:33:06.507Z,99.08
2023-03-18T03:35:26.436Z,98.25
2023-03-18T03:37:43.345Z,98.88
2023-03-18T03:40:00.372Z,99.06
2023-03-18T03:42:17.397Z,99.49
2023-03-18T03:44:34.476Z,98.77
2023-03-18T03:46:51.463Z,98.91
2023-03-18T03:49:08.500Z,98.70
2023-03-18T03:51:25.428Z,99.13
2023-03-18T03:53:42.393Z,99.31
2023-03-18T03:55:59.444Z,99.04
2023-03-18T03:58:16.437Z,99.66
2023-03-18T04:00:33.805Z,99.67
2023-03-18T04:02:51.097Z,99.75
2023-03-18T04:05:08.125Z,99.80
2023-03-18T04:07:25.050Z,100.00
2023-03-18T04:09:42.295Z,100.00
2023-03-18T04:11:59.335Z,100.00
2023-03-18T04:14:16.195Z,100.00
2023-03-18T04:16:33.133Z,100.00
2023-03-18T04:18:50.528Z,100.00
2023-03-18T04:21:07.431Z,100.00
2023-03-18T04:23:24.694Z,100.00
2023-03-18T04:25:41.894Z,100.00
2023-03-18T04:27:58.924Z,100.00
2023-03-18T04:30:15.940Z,99.02
2023-03-18T04:32:33.057Z,98.81
2023-03-18T04:34:50.394Z,98.29
2023-03-18T04:37:07.342Z,98.82
2023-03-18T04:39:24.236Z,99.19
2023-03-18T04:41:41.164Z,98.48
2023-03-18T04:43:58.157Z,98.86
2023-03-18T04:46:15.173Z,98.24
2023-03-18T04:48:32.116Z,98.19
2023-03-18T04:50:49.340Z,98.58
2023-03-18T04:53:07.368Z,98.65
2023-03-18T04:55:24.618Z,98.25
2023-03-18T04:57:42.008Z,97.89
2023-03-18T04:59:59.049Z,97.72
2023-03-18T05:02:16.081Z,98.33
2023-03-18T05:04:33.307Z,97.84
2023-03-18T05:06:50.256Z,97.72
2023-03-18T05:09:07.171Z,98.38
2023-03-18T05:11:24.350Z,98.48
2023-03-18T05:13:41.364Z,98.07
2023-03-18T05:15:58.406Z,98.37
2023-03-18T05:18:15.312Z,98.47
2023-03-18T05:20:33.280Z,98.03
2023-03-18T05:22:50.517Z,98.88
2023-03-18T05:25:07.495Z,98.61
2023-03-18T05:27:24.777Z,98.83
2023-03-18T05:29:42.104Z,99.30
2023-03-18T05:31:59.238Z,99.11
2023-03-18T05:34:16.554Z,100.00
2023-03-18T05:36:33.660Z,100.00
2023-03-18T05:38:50.929Z,100.00
2023-03-18T05:41:08.956Z,99.80
2023-03-18T05:43:26.191Z,100.00
2023-03-18T05:45:43.358Z,100.00
2023-03-18T05:48:00.657Z,100.00
2023-03-18T05:50:17.543Z,99.76
2023-03-18T05:52:34.824Z,99.90
2023-03-18T05:54:51.839Z,99.69
2023-03-18T05:57:09.037Z,98.92
2023-03-18T05:59:26.153Z,99.63
2023-03-18T06:01:43.168Z,100.00
2023-03-18T06:04:00.058Z,99.74
2023-03-18T06:06:16.951Z,99.79
2023-03-18T06:08:33.991Z,100.00
2023-03-18T06:10:50.909Z,99.48
2023-03-18T06:13:07.836Z,99.95
2023-03-18T06:15:24.874Z,100.00
2023-03-18T06:17:41.858Z,100.00
2023-03-18T06:19:58.749Z,100.00
2023-03-18T06:22:15.813Z,100.00
2023-03-18T06:24:32.814Z,100.00
2023-03-18T06:26:49.737Z,100.00
2023-03-18T06:29:06.724Z,100.00
2023-03-18T06:31:23.893Z,99.53
2023-03-18T06:33:41.260Z,99.69
2023-03-18T06:35:59.347Z,99.58
2023-03-18T06:38:16.279Z,100.00
2023-03-18T06:40:33.266Z,100.00
2023-03-18T06:42:50.292Z,100.00
2023-03-18T06:45:07.408Z,100.00
2023-03-18T06:47:24.732Z,99.81
2023-03-18T06:49:41.641Z,100.00
2023-03-18T06:51:58.687Z,100.00
2023-03-18T06:54:15.728Z,100.00
2023-03-18T06:56:32.714Z,100.00
2023-03-18T06:58:49.735Z,100.00
2023-03-18T07:01:06.840Z,100.00
2023-03-18T07:03:24.799Z,100.00
2023-03-18T07:05:41.740Z,100.00
2023-03-18T07:07:58.669Z,100.00
2023-03-18T07:10:15.701Z,100.00
2023-03-18T07:12:32.774Z,99.87
2023-03-18T07:14:49.673Z,100.00
2023-03-18T07:17:07.549Z,100.00
2023-03-18T07:19:24.574Z,100.00
2023-03-18T07:21:41.603Z,100.00
2023-03-18T07:23:58.648Z,100.00
2023-03-18T07:26:15.585Z,100.00
2023-03-18T07:28:32.897Z,100.00
2023-03-18T07:30:50.037Z,99.98
2023-03-18T07:33:08.240Z,100.00
2023-03-18T07:35:25.292Z,100.00
2023-03-18T07:37:42.538Z,100.00
2023-03-18T07:39:59.654Z,100.00
2023-03-18T07:42:16.892Z,100.00
2023-03-18T07:44:34.137Z,99.90
2023-03-18T07:46:51.075Z,100.00
2023-03-18T07:49:07.994Z,99.81
2023-03-18T07:51:25.321Z,100.00
2023-03-18T07:53:42.572Z,99.38
2023-03-18T07:55:59.507Z,98.59
2023-03-18T07:58:16.604Z,98.93
2023-03-18T08:00:33.665Z,97.91
2023-03-18T08:02:50.698Z,97.28
2023-03-18T08:05:07.710Z,98.09
2023-03-18T08:07:24.785Z,97.62
2023-03-18T08:09:42.072Z,96.13
2023-03-18T08:11:58.965Z,94.67
2023-03-18T08:14:15.977Z,93.89
2023-03-18T08:16:33.343Z,94.18
2023-03-18T08:18:50.240Z,92.92
2023-03-18T08:21:08.510Z,93.74
2023-03-18T08:23:25.512Z,92.85
2023-03-18T08:25:42.746Z,93.10
2023-03-18T08:27:59.755Z,93.12
2023-03-18T08:30:17.012Z,93.01
2023-03-18T08:32:34.313Z,91.25
2023-03-18T08:34:51.737Z,91.93
2023-03-18T08:37:08.685Z,92.55
2023-03-18T08:39:25.729Z,92.46
2023-03-18T08:41:44.782Z,91.47
2023-03-18T08:44:02.819Z,90.58
2023-03-18T08:46:19.765Z,91.36
2023-03-18T08:48:36.874Z,90.87
2023-03-18T08:50:55.072Z,89.41
2023-03-18T08:53:13.366Z,89.45
2023-03-18T08:55:30.252Z,88.64
2023-03-18T08:57:47.547Z,86.69
2023-03-18T09:00:04.817Z,86.66
2023-03-18T09:02:22.106Z,86.44
2023-03-18T09:04:39.154Z,85.50
2023-03-18T09:06:56.245Z,84.47
2023-03-18T09:09:13.556Z,81.73
2023-03-18T09:11:30.664Z,81.71
2023-03-18T09:13:47.697Z,82.04
2023-03-18T09:16:04.950Z,83.12
2023-03-18T09:18:21.975Z,82.70
2023-03-18T09:20:39.114Z,81.67
2023-03-18T09:22:56.049Z,80.54
2023-03-18T09:25:13.336Z,78.08
2023-03-18T09:27:30.197Z,75.16
2023-03-18T09:29:47.551Z,75.31
2023-03-18T09:32:04.883Z,76.17
2023-03-18T09:34:22.110Z,75.24
2023-03-18T09:36:39.158Z,74.20
2023-03-18T09:38:56.440Z,72.41
2023-03-18T09:41:13.379Z,72.70
2023-03-18T09:43:30.321Z,71.39
2023-03-18T09:45:47.684Z,70.85
2023-03-18T09:48:04.598Z,69.76
2023-03-18T09:50:21.808Z,69.29
2023-03-18T09:52:38.875Z,66.79
2023-03-18T09:54:56.133Z,65.59
2023-03-18T09:57:13.453Z,66.58
2023-03-18T09:59:30.344Z,66.80
2023-03-18T10:01:47.670Z,65.84
2023-03-18T10:04:04.711Z,62.19
2023-03-18T10:06:21.703Z,62.79
2023-03-18T10:08:38.584Z,63.74
2023-03-18T10:10:55.588Z,64.36
2023-03-18T10:13:12.802Z,62.50
2023-03-18T10:15:30.131Z,62.25
2023-03-18T10:17:47.151Z,61.26
2023-03-18T10:20:04.193Z,62.27
2023-03-18T10:22:21.226Z,62.42
2023-03-18T10:24:39.114Z,60.12
2023-03-18T10:26:56.354Z,59.93
2023-03-18T10:29:13.444Z,61.19
2023-03-18T10:31:30.748Z,61.06
2023-03-18T10:33:48.130Z,60.43
2023-03-18T10:36:05.163Z,59.29
2023-03-18T10:38:22.174Z,60.21
2023-03-18T10:40:39.479Z,58.68
2023-03-18T10:42:56.835Z,59.53
2023-03-18T10:45:13.845Z,59.61
2023-03-18T10:47:30.932Z,58.09
2023-03-18T10:49:48.259Z,57.04
2023-03-18T10:52:06.327Z,57.54
2023-03-18T10:54:23.409Z,57.79
2023-03-18T10:56:41.544Z,58.71
2023-03-18T10:58:58.452Z,57.63
2023-03-18T11:01:17.439Z,57.90
2023-03-18T11:03:37.387Z,56.82
2023-03-18T11:05:54.389Z,57.98
2023-03-18T11:08:11.694Z,56.07
2023-03-18T11:10:29.002Z,56.59
2023-03-18T11:12:45.981Z,56.32
2023-03-18T11:15:03.033Z,55.13
2023-03-18T11:17:20.118Z,56.66
2023-03-18T11:19:37.440Z,54.22
2023-03-18T11:21:54.488Z,53.92
2023-03-18T11:24:11.528Z,53.69
2023-03-18T11:26:28.507Z,52.77
2023-03-18T11:28:45.616Z,53.24
2023-03-18T11:31:02.912Z,55.04
2023-03-18T11:33:20.170Z,53.13
2023-03-18T11:35:38.253Z,54.49
2023-03-18T11:37:55.318Z,52.73
2023-03-18T11:40:12.375Z,54.44
2023-03-18T11:42:29.692Z,53.40
2023-03-18T11:44:47.945Z,56.41
2023-03-18T11:47:05.310Z,52.69
2023-03-18T11:49:22.371Z,54.93
2023-03-18T11:51:40.811Z,53.79
2023-03-18T11:53:57.825Z,54.03
2023-03-18T11:56:15.086Z,53.79
2023-03-18T11:58:32.111Z,52.96
2023-03-18T12:00:49.377Z,53.03
2023-03-18T12:03:06.382Z,53.44
2023-03-18T12:05:23.488Z,54.58
2023-03-18T12:07:40.740Z,53.44
2023-03-18T12:09:57.699Z,52.22
2023-03-18T12:12:14.675Z,50.72
2023-03-18T12:14:31.761Z,51.90
2023-03-18T12:16:49.167Z,52.97
2023-03-18T12:19:06.236Z,54.81
2023-03-18T12:21:23.282Z,53.51
2023-03-18T12:23:40.592Z,53.55
2023-03-18T12:25:58.839Z,54.87
2023-03-18T12:28:16.214Z,54.03
2023-03-18T12:30:33.784Z,53.75
2023-03-18T12:32:51.189Z,53.00
2023-03-18T12:35:08.187Z,52.91
2023-03-18T12:37:25.230Z,53.97
2023-03-18T12:39:42.264Z,54.35
2023-03-18T12:41:59.589Z,53.92
2023-03-18T12:44:16.516Z,52.46
2023-03-18T12:46:33.584Z,52.58
2023-03-18T12:48:51.879Z,52.49
2023-03-18T12:51:08.828Z,52.31
2023-03-18T12:53:26.122Z,52.96
2023-03-18T12:55:43.378Z,51.72
2023-03-18T12:58:00.297Z,54.07
2023-03-18T13:00:17.699Z,54.25
2023-03-18T13:02:34.911Z,53.38
2023-03-18T13:04:53.789Z,55.07
2023-03-18T13:07:12.108Z,53.77
2023-03-18T13:09:29.180Z,53.33
2023-03-18T13:11:46.471Z,52.55
2023-03-18T13:14:03.442Z,52.37
2023-03-18T13:16:20.757Z,53.28
2023-03-18T13:18:38.070Z,53.75
2023-03-18T13:20:55.070Z,51.97
2023-03-18T13:23:11.931Z,52.40
2023-03-18T13:25:28.984Z,53.11
2023-03-18T13:27:46.109Z,54.03
2023-03-18T13:30:03.335Z,53.29
2023-03-18T13:32:21.559Z,51.62
2023-03-18T13:34:38.452Z,52.14
2023-03-18T13:36:55.434Z,51.53
2023-03-18T13:39:12.658Z,50.51
2023-03-18T13:41:30.542Z,51.30
2023-03-18T13:43:47.648Z,49.45
2023-03-18T13:46:04.940Z,48.69
2023-03-18T13:48:22.016Z,49.70
2023-03-18T13:50:38.992Z,49.89
2023-03-18T13:52:56.358Z,51.97
2023-03-18T13:55:14.798Z,52.34
2023-03-18T13:57:31.727Z,50.51
2023-03-18T13:59:49.991Z,48.39
2023-03-18T14:02:07.252Z,49.78
2023-03-18T14:04:24.200Z,49.00
2023-03-18T14:06:41.189Z,49.94
2023-03-18T14:08:58.184Z,48.96
2023-03-18T14:11:15.420Z,48.51
2023-03-18T14:13:32.360Z,49.83
2023-03-18T14:15:49.436Z,47.96
2023-03-18T14:18:06.378Z,48.75
2023-03-18T14:20:23.796Z,49.27
2023-03-18T14:22:41.235Z,48.94
2023-03-18T14:24:58.132Z,48.78
2023-03-18T14:27:15.055Z,47.17
2023-03-18T14:29:32.067Z,48.13
2023-03-18T14:31:50.157Z,47.42
2023-03-18T14:34:07.086Z,47.82
2023-03-18T14:36:24.334Z,48.86
2023-03-18T14:38:41.662Z,46.61
2023-03-18T14:40:58.687Z,48.28
2023-03-18T14:43:15.811Z,48.93
2023-03-18T14:45:32.974Z,48.15
2023-03-18T14:47:50.199Z,50.47
2023-03-18T14:50:07.137Z,49.58
2023-03-18T14:52:24.164Z,48.54
2023-03-18T14:54:41.181Z,48.63
2023-03-18T14:56:58.032Z,47.63
2023-03-18T14:59:15.043Z,47.34
2023-03-18T15:01:32.340Z,46.73
2023-03-18T15:03:49.239Z,49.65
2023-03-18T15:06:06.234Z,48.61
2023-03-18T15:08:24.247Z,49.98
2023-03-18T15:10:41.349Z,50.31
2023-03-18T15:12:58.403Z,48.86
2023-03-18T15:15:15.289Z,50.24
2023-03-18T15:17:32.388Z,49.82
2023-03-18T15:19:49.416Z,49.90
2023-03-18T15:22:06.291Z,46.51
2023-03-18T15:24:23.557Z,51.17
2023-03-18T15:26:41.556Z,48.24
2023-03-18T15:28:58.470Z,48.63
2023-03-18T15:31:15.484Z,49.62
2023-03-18T15:33:32.548Z,48.53
2023-03-18T15:35:49.938Z,48.87
2023-03-18T15:38:07.240Z,47.63
2023-03-18T15:40:24.252Z,47.23
2023-03-18T15:42:41.366Z,47.01
2023-03-18T15:44:58.324Z,48.64
2023-03-18T15:47:16.343Z,48.78
2023-03-18T15:49:33.617Z,48.12
2023-03-18T15:51:50.649Z,48.23
2023-03-18T15:54:07.744Z,48.19
2023-03-18T15:56:24.673Z,47.49
2023-03-18T15:58:41.653Z,47.29
2023-03-18T16:00:58.909Z,46.60
2023-03-18T16:03:16.338Z,46.68
2023-03-18T16:05:33.444Z,46.51
2023-03-18T16:07:50.437Z,45.85
2023-03-18T16:10:07.525Z,45.78
2023-03-18T16:12:24.536Z,45.84
2023-03-18T16:14:41.544Z,46.58
2023-03-18T16:16:58.545Z,45.95
2023-03-18T16:19:15.608Z,46.41
2023-03-18T16:21:32.682Z,47.36
2023-03-18T16:23:49.908Z,48.15
2023-03-18T16:26:06.943Z,47.58
2023-03-18T16:28:23.902Z,46.88
2023-03-18T16:30:41.088Z,46.72
2023-03-18T16:32:58.040Z,47.71
2023-03-18T16:35:15.065Z,48.89
2023-03-18T16:37:32.124Z,48.73
2023-03-18T16:39:49.174Z,53.15
2023-03-18T16:42:06.472Z,52.04
2023-03-18T16:44:24.479Z,53.52
2023-03-18T16:46:41.375Z,55.42
2023-03-18T16:48:59.459Z,57.43
2023-03-18T16:51:16.471Z,58.78
2023-03-18T16:53:33.709Z,59.46
2023-03-18T16:55:50.601Z,60.25
2023-03-18T16:58:07.589Z,61.10
2023-03-18T17:00:24.712Z,62.01
2023-03-18T17:02:41.744Z,63.38
2023-03-18T17:04:58.725Z,65.35
2023-03-18T17:07:15.763Z,66.11
2023-03-18T17:09:33.086Z,66.00
2023-03-18T17:11:51.079Z,67.72
2023-03-18T17:14:09.528Z,66.85
2023-03-18T17:16:27.816Z,68.49
2023-03-18T17:18:45.083Z,70.15
2023-03-18T17:21:01.991Z,69.41
2023-03-18T17:23:19.955Z,70.80
2023-03-18T17:25:37.234Z,71.97
2023-03-18T17:27:54.154Z,70.93
2023-03-18T17:30:11.049Z,72.11
2023-03-18T17:32:29.255Z,73.10
2023-03-18T17:34:46.376Z,73.10
2023-03-18T17:37:03.655Z,74.08
2023-03-18T17:39:20.908Z,73.69
2023-03-18T17:41:38.145Z,73.96
2023-03-18T17:43:55.465Z,74.32
2023-03-18T17:46:12.531Z,74.79
2023-03-18T17:48:29.801Z,75.88
2023-03-18T17:50:46.698Z,75.90
2023-03-18T17:53:03.773Z,76.58
2023-03-18T17:55:22.460Z,76.49
2023-03-18T17:57:39.603Z,77.42
2023-03-18T17:59:56.822Z,77.00
2023-03-18T18:02:15.046Z,77.43
2023-03-18T18:04:31.976Z,78.05
2023-03-18T18:06:50.032Z,78.57
2023-03-18T18:09:07.114Z,78.54
2023-03-18T18:11:24.269Z,78.84
2023-03-18T18:13:41.284Z,78.12
2023-03-18T18:15:58.207Z,78.91
2023-03-18T18:18:15.071Z,79.07
2023-03-18T18:20:32.315Z,79.12
2023-03-18T18:22:49.228Z,78.98
2023-03-18T18:25:07.095Z,80.06
2023-03-18T18:27:24.111Z,79.77
2023-03-18T18:29:41.445Z,80.15
2023-03-18T18:31:58.347Z,80.50
2023-03-18T18:34:15.382Z,80.88
2023-03-18T18:36:32.363Z,81.16
2023-03-18T18:38:49.310Z,80.29
2023-03-18T18:41:06.577Z,81.04
2023-03-18T18:43:23.670Z,80.37
2023-03-18T18:45:40.954Z,80.46
2023-03-18T18:47:57.913Z,81.50
2023-03-18T18:50:14.853Z,81.64
2023-03-18T18:52:31.865Z,80.81
2023-03-18T18:54:48.878Z,82.42
2023-03-18T18:57:05.799Z,81.30
2023-03-18T18:59:22.775Z,81.57
2023-03-18T19:01:39.885Z,81.58
2023-03-18T19:03:57.183Z,81.99
2023-03-18T19:06:14.148Z,81.76
2023-03-18T19:08:31.181Z,82.28
2023-03-18T19:10:48.217Z,82.44
2023-03-18T19:13:05.490Z,83.43
2023-03-18T19:15:22.736Z,83.66
2023-03-18T19:17:40.087Z,82.27
2023-03-18T19:19:57.148Z,83.10
2023-03-18T19:22:14.078Z,83.82
2023-03-18T19:24:31.172Z,84.16
2023-03-18T19:26:48.491Z,84.19
2023-03-18T19:29:05.786Z,83.35
2023-03-18T19:31:24.050Z,83.42
2023-03-18T19:33:41.456Z,84.01
2023-03-18T19:35:58.425Z,84.67
2023-03-18T19:38:15.379Z,84.47
2023-03-18T19:40:32.348Z,84.77
2023-03-18T19:42:49.297Z,83.50
2023-03-18T19:45:06.358Z,83.81
2023-03-18T19:47:23.347Z,83.68
2023-03-18T19:49:40.278Z,85.12
2023-03-18T19:51:57.663Z,84.83
2023-03-18T19:54:15.204Z,84.24
2023-03-18T19:56:33.131Z,85.53
2023-03-18T19:58:51.524Z,84.61
2023-03-18T20:01:08.842Z,84.54
2023-03-18T20:03:27.060Z,86.06
2023-03-18T20:05:44.163Z,84.57
2023-03-18T20:08:01.493Z,84.83
2023-03-18T20:10:18.420Z,84.47
2023-03-18T20:12:35.441Z,85.08
2023-03-18T20:14:52.484Z,85.24
2023-03-18T20:17:10.567Z,85.97
2023-03-18T20:19:27.819Z,85.82
2023-03-18T20:21:45.108Z,84.85
2023-03-18T20:24:02.013Z,86.33
2023-03-18T20:26:18.955Z,85.54
2023-03-18T20:28:35.897Z,85.57
2023-03-18T20:30:52.831Z,86.61
2023-03-18T20:33:09.984Z,86.40
2023-03-18T20:35:26.851Z,86.11
2023-03-18T20:37:43.780Z,86.65
2023-03-18T20:40:00.691Z,86.17
2023-03-18T20:42:17.752Z,86.43
2023-03-18T20:44:35.727Z,87.26
2023-03-18T20:46:53.039Z,87.09
2023-03-18T20:49:09.949Z,87.04
2023-03-18T20:51:26.805Z,86.19
2023-03-18T20:53:44.650Z,87.47
2023-03-18T20:56:01.705Z,86.43
2023-03-18T20:58:18.654Z,86.46
2023-03-18T21:00:35.587Z,86.84
2023-03-18T21:02:52.837Z,86.84
2023-03-18T21:05:10.141Z,86.96
2023-03-18T21:07:28.028Z,87.18
2023-03-18T21:09:44.976Z,87.33
2023-03-18T21:12:01.893Z,87.19
2023-03-18T21:14:18.779Z,87.13
2023-03-18T21:16:37.782Z,87.29
2023-03-18T21:18:54.914Z,86.81
2023-03-18T21:21:11.922Z,87.64
2023-03-18T21:23:28.983Z,86.99
2023-03-18T21:25:46.020Z,87.89
2023-03-18T21:28:02.989Z,87.08
2023-03-18T21:30:20.277Z,87.45
2023-03-18T21:32:37.654Z,87.72
2023-03-18T21:34:54.812Z,88.89
2023-03-18T21:37:11.867Z,88.12
2023-03-18T21:39:29.911Z,88.47
2023-03-18T21:41:46.824Z,87.74
2023-03-18T21:44:04.097Z,88.35
2023-03-18T21:46:22.137Z,87.88
2023-03-18T21:48:39.484Z,87.94
2023-03-18T21:50:56.589Z,88.14
2023-03-18T21:53:13.493Z,88.41
2023-03-18T21:55:30.443Z,88.38
2023-03-18T21:57:48.937Z,88.16
2023-03-18T22:00:06.693Z,88.40
2023-03-18T22:02:24.784Z,89.17
2023-03-18T22:04:41.979Z,89.52
2023-03-18T22:06:59.307Z,89.05
2023-03-18T22:09:16.696Z,89.62
2023-03-18T22:11:34.063Z,88.80
2023-03-18T22:13:51.305Z,88.88
2023-03-18T22:16:08.286Z,88.73
2023-03-18T22:18:25.303Z,89.57
2023-03-18T22:20:42.346Z,88.94
2023-03-18T22:23:00.424Z,89.76
2023-03-18T22:25:17.394Z,89.34
2023-03-18T22:27:34.325Z,88.67
2023-03-18T22:29:51.501Z,88.71
2023-03-18T22:32:08.526Z,89.09
2023-03-18T22:34:25.426Z,89.16
2023-03-18T22:36:43.510Z,89.75
2023-03-18T22:39:00.375Z,88.88
2023-03-18T22:41:17.292Z,88.80
2023-03-18T22:43:34.781Z,89.53
2023-03-18T22:45:52.189Z,89.64
2023-03-18T22:48:09.236Z,89.70
2023-03-18T22:50:26.474Z,89.45
2023-03-18T22:52:43.721Z,89.43
2023-03-18T22:55:00.698Z,89.31
2023-03-18T22:57:17.630Z,89.00
2023-03-18T22:59:34.705Z,89.27
2023-03-18T23:01:51.782Z,89.94
2023-03-18T23:04:09.009Z,89.89
2023-03-18T23:06:25.989Z,90.39
2023-03-18T23:08:43.071Z,90.18
2023-03-18T23:11:00.307Z,89.91
2023-03-18T23:13:17.234Z,90.22
2023-03-18T23:15:34.573Z,90.30
2023-03-18T23:17:51.792Z,90.13
2023-03-18T23:20:08.827Z,90.32
2023-03-18T23:22:25.845Z,90.49
2023-03-18T23:24:42.859Z,90.66
2023-03-18T23:27:00.167Z,90.61
2023-03-18T23:29:17.040Z,90.07
2023-03-18T23:31:35.158Z,89.52
2023-03-18T23:33:52.092Z,90.60
2023-03-18T23:36:09.134Z,90.39
2023-03-18T23:38:26.171Z,89.70
2023-03-18T23:40:43.097Z,90.07
2023-03-18T23:43:00.096Z,89.72
2023-03-18T23:45:17.399Z,90.31
2023-03-18T23:47:34.423Z,90.25
2023-03-18T23:49:51.354Z,90.37
2023-03-18T23:52:08.624Z,89.59
2023-03-18T23:54:25.545Z,90.12
2023-03-18T23:56:42.564Z,91.16
2023-03-18T23:58:59.900Z,90.79
